createdAt,value
2023-01-31T00:02:20.152Z,91.68
2023-01-31T00:04:48.083Z,92.80
2023-01-31T00:07:15.559Z,93.43
2023-01-31T00:09:43.061Z,93.51
2023-01-31T00:12:10.527Z,93.09
2023-01-31T00:14:38.503Z,93.25
2023-01-31T00:17:06.569Z,93.29
2023-01-31T00:19:34.087Z,91.63
2023-01-31T00:22:01.639Z,88.88
2023-01-31T00:24:29.206Z,85.75
2023-01-31T00:26:57.019Z,85.64
2023-01-31T00:29:26.956Z,85.40
2023-01-31T00:31:55.687Z,86.65
2023-01-31T00:34:23.236Z,87.30
2023-01-31T00:36:50.942Z,87.50
2023-01-31T00:39:18.608Z,88.04
2023-01-31T00:41:46.112Z,88.82
2023-01-31T00:44:13.714Z,88.34
2023-01-31T00:46:41.246Z,88.77
2023-01-31T00:49:08.871Z,88.75
2023-01-31T00:51:36.652Z,88.33
2023-01-31T00:54:04.319Z,88.54
2023-01-31T00:56:32.187Z,89.21
2023-01-31T00:59:00.452Z,89.06
2023-01-31T01:01:30.189Z,89.11
2023-01-31T01:03:59.605Z,88.98
2023-01-31T01:06:28.403Z,87.52
2023-01-31T01:08:59.853Z,87.26
2023-01-31T01:11:32.172Z,86.84
2023-01-31T01:14:01.076Z,86.86
2023-01-31T01:16:37.080Z,85.03
2023-01-31T01:19:09.582Z,85.01
2023-01-31T01:21:40.815Z,86.23
2023-01-31T01:24:20.225Z,86.65
2023-01-31T01:26:48.535Z,86.34
2023-01-31T01:29:16.191Z,86.92
2023-01-31T01:31:45.340Z,87.52
2023-01-31T01:34:15.951Z,87.41
2023-01-31T01:36:46.766Z,86.92
2023-01-31T01:39:17.162Z,84.89
2023-01-31T01:41:46.079Z,85.52
2023-01-31T01:44:49.156Z,87.30
2023-01-31T01:47:36.311Z,86.23
2023-01-31T01:50:16.082Z,86.77
2023-01-31T01:53:01.752Z,88.36
2023-01-31T01:56:04.310Z,87.79
2023-01-31T01:58:47.096Z,86.48
2023-01-31T02:01:16.913Z,88.59
2023-01-31T02:03:49.916Z,88.88
2023-01-31T02:06:17.582Z,89.07
2023-01-31T02:08:46.199Z,87.86
2023-01-31T02:11:30.784Z,87.53
2023-01-31T02:14:10.647Z,86.58
2023-01-31T02:16:38.199Z,86.60
2023-01-31T02:19:21.389Z,87.39
2023-01-31T02:22:12.564Z,88.15
2023-01-31T02:24:54.726Z,87.73
2023-01-31T02:28:05.586Z,86.87
2023-01-31T02:31:00.943Z,84.50
2023-01-31T02:34:03.702Z,84.75
2023-01-31T02:36:53.203Z,84.06
2023-01-31T02:39:36.936Z,81.77
2023-01-31T02:42:28.446Z,82.03
2023-01-31T02:45:23.702Z,81.11
2023-01-31T02:48:32.677Z,80.39
2023-01-31T02:51:13.583Z,81.07
2023-01-31T02:53:48.632Z,80.58
2023-01-31T02:56:26.514Z,79.01
2023-01-31T02:59:08.765Z,79.57
2023-01-31T03:01:44.568Z,81.38
2023-01-31T03:04:14.545Z,82.31
2023-01-31T03:06:59.854Z,83.61
2023-01-31T03:09:52.368Z,84.72
2023-01-31T03:13:07.291Z,85.11
2023-01-31T03:16:10.682Z,85.54
2023-01-31T03:19:23.705Z,86.57
2023-01-31T03:22:03.671Z,87.02
2023-01-31T03:24:32.703Z,87.05
2023-01-31T03:27:04.961Z,86.92
2023-01-31T03:29:38.507Z,86.31
2023-01-31T03:32:24.932Z,86.08
2023-01-31T03:34:53.101Z,86.00
2023-01-31T03:37:26.026Z,85.80
2023-01-31T03:40:21.881Z,85.87
2023-01-31T03:42:59.617Z,83.22
2023-01-31T03:45:38.720Z,82.59
2023-01-31T03:48:14.447Z,80.40
2023-01-31T03:50:51.986Z,79.77
2023-01-31T03:53:53.532Z,78.84
2023-01-31T03:56:44.675Z,77.54
2023-01-31T03:59:20.046Z,77.17
2023-01-31T04:01:52.186Z,77.58
2023-01-31T04:04:30.347Z,77.36
2023-01-31T04:06:57.962Z,77.75
2023-01-31T04:09:26.155Z,77.21
2023-01-31T04:11:53.859Z,75.60
2023-01-31T04:14:21.454Z,71.27
2023-01-31T04:16:49.063Z,68.71
2023-01-31T04:19:16.543Z,66.46
2023-01-31T04:21:44.085Z,66.67
2023-01-31T04:24:11.918Z,67.19
2023-01-31T04:26:39.474Z,65.92
2023-01-31T04:29:07.036Z,66.10
2023-01-31T04:31:34.662Z,66.84
2023-01-31T04:34:02.309Z,68.47
2023-01-31T04:36:29.894Z,69.85
2023-01-31T04:38:57.377Z,71.69
2023-01-31T04:41:25.045Z,71.66
2023-01-31T04:43:52.690Z,72.00
2023-01-31T04:46:20.726Z,70.87
2023-01-31T04:48:48.580Z,71.89
2023-01-31T04:51:16.154Z,70.79
2023-01-31T04:53:45.445Z,71.65
2023-01-31T04:56:13.006Z,72.32
2023-01-31T04:58:41.596Z,72.65
2023-01-31T05:01:09.424Z,71.27
2023-01-31T05:03:37.082Z,73.44
2023-01-31T05:06:04.973Z,71.80
2023-01-31T05:08:32.854Z,72.93
2023-01-31T05:11:07.536Z,72.95
2023-01-31T05:13:39.251Z,71.49
2023-01-31T05:16:11.729Z,71.74
2023-01-31T05:18:40.273Z,72.78
2023-01-31T05:21:08.584Z,72.85
2023-01-31T05:23:36.802Z,72.77
2023-01-31T05:26:05.000Z,72.75
2023-01-31T05:28:32.756Z,72.09
2023-01-31T05:31:07.175Z,71.63
2023-01-31T05:33:36.164Z,71.81
2023-01-31T05:36:04.520Z,71.27
2023-01-31T05:38:32.138Z,72.54
2023-01-31T05:40:59.782Z,73.72
2023-01-31T05:43:27.405Z,73.96
2023-01-31T05:45:54.963Z,73.81
2023-01-31T05:48:22.662Z,74.57
2023-01-31T05:50:51.167Z,74.32
2023-01-31T05:53:19.100Z,74.17
2023-01-31T05:55:47.529Z,75.41
2023-01-31T05:58:15.097Z,75.75
2023-01-31T06:00:42.680Z,75.42
2023-01-31T06:03:11.169Z,74.62
2023-01-31T06:05:40.490Z,74.95
2023-01-31T06:08:08.260Z,74.78
2023-01-31T06:10:35.757Z,75.06
2023-01-31T06:13:03.280Z,74.33
2023-01-31T06:15:30.826Z,74.36
2023-01-31T06:17:59.091Z,73.88
2023-01-31T06:20:27.707Z,74.75
2023-01-31T06:22:55.303Z,73.40
2023-01-31T06:25:23.113Z,73.78
2023-01-31T06:27:50.696Z,71.92
2023-01-31T06:30:18.583Z,73.68
2023-01-31T06:32:46.118Z,73.63
2023-01-31T06:35:13.779Z,72.68
2023-01-31T06:37:41.389Z,72.75
2023-01-31T06:40:12.448Z,74.29
2023-01-31T06:42:39.991Z,72.59
2023-01-31T06:45:08.381Z,72.63
2023-01-31T06:47:36.191Z,72.62
2023-01-31T06:50:04.046Z,72.87
2023-01-31T06:52:31.653Z,71.83
2023-01-31T06:54:59.148Z,71.53
2023-01-31T06:57:26.811Z,71.37
2023-01-31T06:59:54.409Z,71.33
2023-01-31T07:02:21.913Z,70.66
2023-01-31T07:04:49.532Z,70.04
2023-01-31T07:07:17.399Z,69.41
2023-01-31T07:09:44.984Z,69.41
2023-01-31T07:12:12.767Z,68.83
2023-01-31T07:14:40.864Z,70.29
2023-01-31T07:17:08.413Z,69.68
2023-01-31T07:19:37.445Z,69.92
2023-01-31T07:22:05.051Z,68.99
2023-01-31T07:24:32.611Z,69.77
2023-01-31T07:27:01.321Z,69.62
2023-01-31T07:29:28.900Z,69.63
2023-01-31T07:31:56.582Z,69.65
2023-01-31T07:34:24.882Z,70.73
2023-01-31T07:36:52.989Z,73.25
2023-01-31T07:39:20.593Z,69.90
2023-01-31T07:41:48.981Z,70.86
2023-01-31T07:44:16.874Z,70.68
2023-01-31T08:21:47.105Z,74.65
2023-01-31T08:24:14.711Z,73.27
2023-01-31T08:26:44.435Z,72.49
2023-01-31T08:29:12.058Z,72.08
2023-01-31T08:31:42.362Z,71.18
2023-01-31T08:34:10.296Z,69.38
2023-01-31T08:36:38.216Z,69.48
2023-01-31T08:39:06.109Z,68.86
2023-01-31T08:41:37.645Z,67.60
2023-01-31T08:44:08.551Z,67.44
2023-01-31T08:46:38.193Z,69.50
2023-01-31T08:49:07.396Z,68.14
2023-01-31T08:51:38.512Z,67.68
2023-01-31T08:54:06.189Z,67.39
2023-01-31T08:56:33.969Z,66.61
2023-01-31T08:59:01.589Z,66.44
2023-01-31T09:01:29.317Z,66.85
2023-01-31T09:03:58.119Z,67.92
2023-01-31T09:06:27.716Z,67.01
2023-01-31T09:08:59.403Z,67.73
2023-01-31T09:11:30.860Z,66.44
2023-01-31T09:13:59.268Z,68.24
2023-01-31T09:16:26.945Z,66.50
2023-01-31T09:18:56.382Z,66.28
2023-01-31T09:21:25.246Z,67.28
2023-01-31T09:23:58.658Z,64.21
2023-01-31T09:26:26.646Z,63.09
2023-01-31T09:28:54.512Z,62.41
2023-01-31T09:31:22.481Z,64.46
2023-01-31T09:33:50.097Z,63.96
2023-01-31T09:36:20.985Z,61.89
2023-01-31T09:38:53.576Z,60.76
2023-01-31T09:41:34.792Z,60.03
2023-01-31T09:44:17.491Z,59.32
2023-01-31T09:47:06.047Z,58.82
2023-01-31T09:49:50.083Z,59.99
2023-01-31T09:52:17.891Z,59.24
2023-01-31T09:54:48.923Z,58.42
2023-01-31T09:57:28.442Z,57.87
2023-01-31T10:00:23.002Z,58.17
2023-01-31T10:03:38.418Z,56.93
2023-01-31T10:06:39.635Z,56.34
2023-01-31T10:09:16.751Z,56.35
2023-01-31T10:12:14.294Z,54.54
2023-01-31T10:14:53.777Z,51.48
2023-01-31T10:17:31.722Z,52.04
2023-01-31T10:20:32.773Z,50.78
2023-01-31T10:23:16.746Z,50.92
2023-01-31T10:25:57.886Z,51.37
2023-01-31T10:28:49.202Z,50.48
2023-01-31T10:31:28.191Z,50.90
2023-01-31T10:34:21.631Z,51.79
2023-01-31T10:37:10.461Z,50.09
2023-01-31T10:39:48.656Z,49.63
2023-01-31T10:42:23.660Z,49.04
2023-01-31T10:44:59.343Z,48.38
2023-01-31T10:47:37.399Z,47.94
2023-01-31T10:50:23.798Z,49.59
2023-01-31T10:53:15.401Z,48.60
2023-01-31T10:56:09.454Z,50.62
2023-01-31T10:58:37.706Z,50.13
2023-01-31T11:01:12.045Z,49.87
2023-01-31T11:03:40.321Z,51.59
2023-01-31T11:06:12.846Z,51.64
2023-01-31T11:09:00.497Z,51.59
2023-01-31T11:11:30.435Z,50.69
2023-01-31T11:14:07.637Z,49.36
2023-01-31T11:16:39.096Z,50.01
2023-01-31T11:19:45.849Z,51.98
2023-01-31T11:22:25.342Z,53.17
2023-01-31T11:24:54.121Z,53.57
2023-01-31T11:27:40.917Z,51.98
2023-01-31T11:30:31.654Z,52.23
2023-01-31T11:32:59.775Z,50.56
2023-01-31T11:35:33.212Z,49.95
2023-01-31T11:38:11.561Z,49.30
2023-01-31T11:40:41.180Z,47.34
2023-01-31T11:43:17.653Z,47.12
2023-01-31T11:45:54.589Z,46.31
2023-01-31T11:48:38.547Z,43.82
2023-01-31T11:51:06.955Z,44.51
2023-01-31T11:53:49.925Z,41.08
2023-01-31T11:56:27.200Z,40.92
2023-01-31T11:58:59.059Z,40.43
2023-01-31T12:01:27.793Z,41.17
2023-01-31T12:04:04.759Z,40.51
2023-01-31T12:06:41.348Z,40.86
2023-01-31T12:09:24.984Z,41.38
2023-01-31T12:12:07.918Z,43.37
2023-01-31T12:14:43.195Z,44.48
2023-01-31T12:17:17.553Z,45.00
2023-01-31T12:20:26.538Z,44.97
2023-01-31T12:23:09.397Z,45.18
2023-01-31T12:26:04.622Z,46.13
2023-01-31T12:29:25.767Z,48.13
2023-01-31T12:32:52.756Z,46.36
2023-01-31T12:35:43.524Z,46.08
2023-01-31T12:39:12.318Z,46.46
2023-01-31T12:41:56.737Z,48.11
2023-01-31T12:45:03.271Z,46.22
2023-01-31T12:47:45.620Z,45.14
2023-01-31T12:50:25.102Z,45.45
2023-01-31T12:53:10.913Z,45.79
2023-01-31T12:56:23.214Z,45.53
2023-01-31T12:59:16.291Z,45.49
2023-01-31T13:02:19.700Z,45.83
2023-01-31T13:05:02.355Z,44.49
2023-01-31T13:07:40.449Z,42.53
2023-01-31T13:10:28.693Z,41.83
2023-01-31T13:12:59.473Z,41.52
2023-01-31T13:16:04.123Z,43.86
2023-01-31T13:18:35.732Z,46.79
2023-01-31T13:21:10.879Z,46.19
2023-01-31T13:23:48.428Z,47.14
2023-01-31T13:26:22.389Z,46.12
2023-01-31T13:29:14.654Z,44.22
2023-01-31T13:32:04.428Z,45.70
2023-01-31T13:34:56.172Z,44.52
2023-01-31T13:37:26.067Z,42.69
2023-01-31T13:40:17.085Z,43.40
2023-01-31T13:42:44.662Z,44.01
2023-01-31T13:45:32.054Z,44.75
2023-01-31T13:48:25.700Z,44.63
2023-01-31T13:51:22.125Z,43.52
2023-01-31T13:53:59.845Z,44.50
2023-01-31T13:56:35.582Z,47.31
2023-01-31T13:59:03.948Z,48.62
2023-01-31T14:01:44.533Z,47.18
2023-01-31T14:04:14.973Z,49.10
2023-01-31T14:06:58.728Z,48.54
2023-01-31T14:10:10.686Z,50.75
2023-01-31T14:12:40.806Z,55.00
2023-01-31T14:15:50.065Z,56.24
2023-01-31T14:18:38.691Z,56.66
2023-01-31T14:21:31.332Z,54.82
2023-01-31T14:24:04.205Z,51.30
2023-01-31T14:26:43.573Z,50.18
2023-01-31T14:29:22.424Z,51.64
2023-01-31T14:31:52.908Z,48.83
2023-01-31T14:34:30.820Z,47.16
2023-01-31T14:37:20.319Z,44.70
2023-01-31T14:40:28.493Z,43.53
2023-01-31T14:43:05.771Z,42.56
2023-01-31T14:46:22.661Z,40.20
2023-01-31T14:49:37.092Z,39.99
2023-01-31T14:52:19.799Z,40.02
2023-01-31T14:55:26.350Z,42.88
2023-01-31T14:58:00.091Z,44.65
2023-01-31T15:00:51.340Z,46.12
2023-01-31T15:03:30.881Z,46.97
2023-01-31T15:06:09.296Z,47.88
2023-01-31T15:08:46.775Z,51.13
2023-01-31T15:11:40.653Z,53.06
2023-01-31T15:14:36.822Z,55.14
2023-01-31T15:17:33.066Z,56.19
2023-01-31T15:20:20.690Z,56.26
2023-01-31T15:22:49.640Z,56.87
2023-01-31T15:25:45.776Z,57.62
2023-01-31T15:28:22.392Z,58.31
2023-01-31T15:30:53.035Z,58.72
2023-01-31T15:33:48.797Z,59.01
2023-01-31T15:36:46.543Z,61.50
2023-01-31T15:39:56.941Z,62.92
2023-01-31T15:42:33.299Z,62.96
2023-01-31T15:45:35.380Z,63.41
2023-01-31T15:48:14.532Z,64.55
2023-01-31T15:51:00.186Z,66.18
2023-01-31T15:53:32.868Z,64.96
2023-01-31T15:56:03.517Z,66.03
2023-01-31T15:58:33.458Z,66.58
2023-01-31T16:01:03.597Z,67.27
2023-01-31T16:03:41.743Z,66.36
2023-01-31T16:06:34.701Z,67.37
2023-01-31T16:09:21.641Z,68.56
2023-01-31T16:11:52.599Z,67.34
2023-01-31T16:14:26.511Z,65.09
2023-01-31T16:16:58.045Z,65.09
2023-01-31T16:19:35.937Z,65.92
2023-01-31T16:22:04.123Z,68.42
2023-01-31T16:24:32.184Z,69.89
2023-01-31T16:27:07.092Z,69.60
2023-01-31T16:29:49.036Z,71.52
2023-01-31T16:32:31.963Z,73.16
2023-01-31T16:35:27.787Z,74.29
2023-01-31T16:38:15.490Z,72.10
2023-01-31T16:40:55.628Z,70.94
2023-01-31T16:43:31.478Z,71.44
2023-01-31T16:46:35.707Z,72.54
2023-01-31T16:49:26.006Z,72.87
2023-01-31T16:52:27.801Z,72.50
2023-01-31T16:55:01.368Z,73.95
2023-01-31T16:57:38.077Z,74.24
2023-01-31T17:00:33.146Z,72.97
2023-01-31T17:03:01.967Z,71.92
2023-01-31T17:05:49.738Z,72.33
2023-01-31T17:08:20.284Z,71.64
2023-01-31T17:10:51.744Z,71.70
2023-01-31T17:13:28.743Z,72.93
2023-01-31T17:15:57.441Z,75.39
2023-01-31T17:18:29.706Z,75.00
2023-01-31T17:20:57.800Z,74.16
2023-01-31T17:23:26.374Z,74.93
2023-01-31T17:25:55.352Z,72.80
2023-01-31T17:28:25.821Z,73.33
2023-01-31T17:30:55.755Z,72.45
2023-01-31T17:33:27.316Z,72.56
2023-01-31T17:35:55.773Z,73.22
2023-01-31T17:38:30.341Z,73.43
2023-01-31T17:41:08.053Z,74.88
2023-01-31T17:43:36.735Z,75.04
2023-01-31T17:46:09.964Z,77.68
2023-01-31T17:48:55.594Z,77.39
2023-01-31T17:51:25.039Z,76.73
2023-01-31T17:56:40.438Z,76.36
2023-01-31T17:59:21.649Z,77.91
2023-01-31T18:01:57.933Z,77.82
2023-01-31T18:04:27.420Z,77.86
2023-01-31T18:06:57.719Z,78.19
2023-01-31T18:09:28.142Z,76.20
2023-01-31T18:11:57.756Z,76.10
2023-01-31T18:14:26.853Z,77.15
2023-01-31T18:16:58.494Z,78.25
2023-01-31T18:19:27.259Z,79.20
2023-01-31T18:22:17.386Z,80.06
2023-01-31T18:25:10.784Z,80.99
2023-01-31T18:27:39.911Z,81.32
2023-01-31T18:30:09.618Z,80.41
2023-01-31T18:32:40.300Z,81.05
2023-01-31T18:35:10.114Z,80.94
2023-01-31T18:37:38.720Z,81.06
2023-01-31T18:40:20.244Z,81.09
2023-01-31T18:42:48.820Z,81.38
2023-01-31T18:45:23.338Z,81.07
2023-01-31T18:48:13.021Z,81.31
2023-01-31T18:50:49.505Z,81.47
2023-01-31T18:53:20.607Z,82.11
2023-01-31T18:56:00.288Z,81.78
2023-01-31T18:58:55.217Z,81.20
2023-01-31T19:01:32.974Z,82.76
2023-01-31T19:04:04.204Z,81.54
2023-01-31T19:06:38.705Z,80.11
2023-01-31T19:09:16.090Z,79.40
2023-01-31T19:11:47.043Z,79.52
2023-01-31T19:14:16.374Z,78.08
2023-01-31T19:16:45.812Z,77.89
2023-01-31T19:19:15.880Z,79.46
2023-01-31T19:21:44.624Z,78.54
2023-01-31T19:24:16.433Z,79.45
2023-01-31T19:29:27.857Z,79.84
2023-01-31T19:31:55.718Z,81.83
2023-01-31T19:34:25.957Z,81.62
2023-01-31T19:37:17.471Z,79.97
2023-01-31T19:39:52.866Z,79.95
2023-01-31T19:42:26.449Z,78.98
2023-01-31T19:44:56.884Z,79.17
2023-01-31T19:47:25.949Z,78.85
2023-01-31T19:49:56.493Z,78.69
2023-01-31T19:52:26.242Z,76.53
2023-01-31T19:54:55.602Z,77.23
2023-01-31T19:57:27.555Z,77.74
2023-01-31T19:59:58.299Z,78.50
2023-01-31T20:02:27.420Z,77.85
2023-01-31T20:04:57.838Z,78.31
2023-01-31T20:07:26.405Z,78.92
2023-01-31T20:09:53.852Z,79.05
2023-01-31T20:12:21.384Z,77.74
2023-01-31T20:14:49.994Z,78.48
2023-01-31T20:17:17.447Z,77.86
2023-01-31T20:19:45.871Z,78.71
2023-01-31T20:22:15.659Z,77.90
2023-01-31T20:24:43.228Z,78.04
2023-01-31T20:27:10.709Z,78.34
2023-01-31T20:29:39.331Z,78.67
2023-01-31T20:32:08.213Z,79.58
2023-01-31T20:34:36.294Z,80.19
2023-01-31T20:37:05.347Z,81.37
2023-01-31T20:39:32.849Z,80.39
2023-01-31T20:42:02.372Z,81.03
2023-01-31T20:44:30.386Z,82.34
2023-01-31T20:46:58.447Z,82.86
2023-01-31T20:49:27.340Z,84.54
2023-01-31T20:51:54.934Z,84.37
2023-01-31T20:54:22.981Z,84.24
2023-01-31T20:56:52.344Z,85.28
2023-01-31T20:59:22.743Z,85.70
2023-01-31T21:01:50.815Z,85.44
2023-01-31T21:04:19.193Z,82.69
2023-01-31T21:06:46.769Z,82.07
2023-01-31T21:09:15.808Z,81.20
2023-01-31T21:11:43.503Z,82.01
2023-01-31T21:14:10.992Z,81.96
2023-01-31T21:16:38.957Z,81.75
2023-01-31T21:19:06.967Z,82.36
2023-01-31T21:21:34.720Z,81.45
2023-01-31T21:24:04.463Z,81.74
2023-01-31T21:26:32.080Z,80.91
2023-01-31T21:29:05.936Z,80.88
2023-01-31T21:31:34.096Z,79.77
2023-01-31T21:34:05.815Z,79.33
2023-01-31T21:36:36.790Z,78.88
2023-01-31T21:39:05.131Z,79.61
2023-01-31T21:41:51.117Z,80.57
2023-01-31T21:44:19.060Z,80.96
2023-01-31T21:46:46.675Z,80.70
2023-01-31T21:49:14.177Z,81.21
2023-01-31T21:51:42.258Z,81.36
2023-01-31T21:54:09.705Z,81.28
2023-01-31T21:56:37.462Z,81.78
2023-01-31T21:59:05.059Z,80.31
2023-01-31T22:01:36.051Z,80.65
2023-01-31T22:04:25.078Z,81.95
2023-01-31T22:06:53.634Z,82.38
2023-01-31T22:09:25.150Z,83.01
2023-01-31T22:11:54.605Z,81.30
2023-01-31T22:14:22.161Z,79.82
2023-01-31T22:16:51.872Z,78.94
2023-01-31T22:19:19.724Z,79.51
2023-01-31T22:21:47.237Z,80.24
2023-01-31T22:24:15.633Z,79.89
2023-01-31T22:26:44.951Z,80.56
2023-01-31T22:29:15.661Z,81.13
2023-01-31T22:31:44.434Z,80.70
2023-01-31T22:34:16.519Z,78.87
2023-01-31T22:36:44.290Z,77.70
2023-01-31T22:39:15.906Z,77.89
2023-01-31T22:41:44.730Z,79.60
2023-01-31T22:44:12.208Z,79.25
2023-01-31T22:46:39.747Z,80.77
2023-01-31T22:49:07.269Z,80.07
2023-01-31T22:51:34.843Z,79.17
2023-01-31T22:54:02.281Z,79.50
2023-01-31T22:56:32.259Z,78.37
2023-01-31T22:59:05.263Z,78.90
2023-01-31T23:01:38.103Z,79.92
2023-01-31T23:04:09.992Z,79.94
2023-01-31T23:06:38.536Z,79.85
2023-01-31T23:09:06.905Z,79.18
2023-01-31T23:11:34.474Z,78.95
2023-01-31T23:14:03.080Z,77.81
2023-01-31T23:16:49.173Z,78.24
2023-01-31T23:19:16.678Z,78.03
2023-01-31T23:21:44.720Z,78.72
2023-01-31T23:24:14.788Z,79.69
2023-01-31T23:26:43.133Z,79.16
2023-01-31T23:29:11.122Z,78.64
2023-01-31T23:31:38.812Z,79.72
2023-01-31T23:34:07.646Z,79.28
2023-01-31T23:36:37.996Z,80.08
2023-01-31T23:39:06.608Z,79.54
2023-01-31T23:41:34.125Z,80.11
2023-01-31T23:44:01.583Z,79.00
2023-01-31T23:46:29.127Z,79.39
2023-01-31T23:48:56.609Z,79.07
2023-01-31T23:51:24.098Z,80.14
2023-01-31T23:53:51.524Z,80.36
2023-01-31T23:56:18.998Z,79.75
2023-01-31T23:58:46.552Z,80.16
